sensor_id;sensor_type;location;lat;lon;timestamp;temperature;humidity
5286;DHT22;2665;53.112;7.358;2024-02-26T00:01:38;3.90;99.90
5286;DHT22;2665;53.112;7.358;2024-02-26T00:04:04;3.90;99.90
5286;DHT22;2665;53.112;7.358;2024-02-26T00:06:30;4.00;99.90
5286;DHT22;2665;53.112;7.358;2024-02-26T00:08:56;4.00;99.90
5286;DHT22;2665;53.112;7.358;2024-02-26T00:11:22;3.90;99.90
5286;DHT22;2665;53.112;7.358;2024-02-26T00:13:48;3.90;99.90
5286;DHT22;2665;53.112;7.358;2024-02-26T00:16:13;3.80;99.90
5286;DHT22;2665;53.112;7.358;2024-02-26T00:18:39;3.80;99.90
5286;DHT22;2665;53.112;7.358;2024-02-26T00:21:05;3.70;99.90
5286;DHT22;2665;53.112;7.358;2024-02-26T00:23:30;3.70;99.90
5286;DHT22;2665;53.112;7.358;2024-02-26T00:25:56;3.60;99.90
5286;DHT22;2665;53.112;7.358;2024-02-26T00:28:22;3.60;99.90
5286;DHT22;2665;53.112;7.358;2024-02-26T00:30:47;3.50;99.90
5286;DHT22;2665;53.112;7.358;2024-02-26T00:33:16;3.50;99.90
5286;DHT22;2665;53.112;7.358;2024-02-26T00:35:42;3.40;99.90
5286;DHT22;2665;53.112;7.358;2024-02-26T00:38:08;3.40;99.90
5286;DHT22;2665;53.112;7.358;2024-02-26T00:40:34;3.40;99.90
5286;DHT22;2665;53.112;7.358;2024-02-26T00:43:00;3.40;99.90
5286;DHT22;2665;53.112;7.358;2024-02-26T00:45:25;3.40;99.90
5286;DHT22;2665;53.112;7.358;2024-02-26T00:47:51;3.40;99.90
5286;DHT22;2665;53.112;7.358;2024-02-26T00:50:17;3.30;99.90
5286;DHT22;2665;53.112;7.358;2024-02-26T00:52:42;3.30;99.90
5286;DHT22;2665;53.112;7.358;2024-02-26T00:55:08;3.30;99.90
5286;DHT22;2665;53.112;7.358;2024-02-26T00:57:34;3.30;99.90
5286;DHT22;2665;53.112;7.358;2024-02-26T01:00:00;3.20;99.90
5286;DHT22;2665;53.112;7.358;2024-02-26T01:02:26;3.30;99.90
5286;DHT22;2665;53.112;7.358;2024-02-26T01:04:52;3.30;99.90
5286;DHT22;2665;53.112;7.358;2024-02-26T01:07:18;3.30;99.90
5286;DHT22;2665;53.112;7.358;2024-02-26T01:09:44;3.30;99.90
5286;DHT22;2665;53.112;7.358;2024-02-26T01:12:09;3.30;99.90
5286;DHT22;2665;53.112;7.358;2024-02-26T01:14:35;3.30;99.90
5286;DHT22;2665;53.112;7.358;2024-02-26T01:17:01;3.30;99.90
5286;DHT22;2665;53.112;7.358;2024-02-26T01:19:26;3.20;99.90
5286;DHT22;2665;53.112;7.358;2024-02-26T01:21:53;3.20;99.90
5286;DHT22;2665;53.112;7.358;2024-02-26T01:24:19;3.20;99.90
5286;DHT22;2665;53.112;7.358;2024-02-26T01:26:44;3.20;99.90
5286;DHT22;2665;53.112;7.358;2024-02-26T01:29:10;3.20;99.90
5286;DHT22;2665;53.112;7.358;2024-02-26T01:31:35;3.20;99.90
5286;DHT22;2665;53.112;7.358;2024-02-26T01:34:01;3.20;99.90
5286;DHT22;2665;53.112;7.358;2024-02-26T01:36:27;3.10;99.90
5286;DHT22;2665;53.112;7.358;2024-02-26T01:38:53;3.20;99.90
5286;DHT22;2665;53.112;7.358;2024-02-26T01:41:18;3.30;99.90
5286;DHT22;2665;53.112;7.358;2024-02-26T01:43:44;3.20;99.90
5286;DHT22;2665;53.112;7.358;2024-02-26T01:46:13;3.20;99.90
5286;DHT22;2665;53.112;7.358;2024-02-26T01:48:41;3.30;99.90
5286;DHT22;2665;53.112;7.358;2024-02-26T01:51:07;3.30;99.90
5286;DHT22;2665;53.112;7.358;2024-02-26T01:53:33;3.30;99.90
5286;DHT22;2665;53.112;7.358;2024-02-26T01:56:00;3.30;99.90
5286;DHT22;2665;53.112;7.358;2024-02-26T01:58:27;3.30;99.90
5286;DHT22;2665;53.112;7.358;2024-02-26T02:00:53;3.40;99.90
5286;DHT22;2665;53.112;7.358;2024-02-26T02:03:19;3.40;99.90
5286;DHT22;2665;53.112;7.358;2024-02-26T02:05:45;3.40;99.90
5286;DHT22;2665;53.112;7.358;2024-02-26T02:08:11;3.50;99.90
5286;DHT22;2665;53.112;7.358;2024-02-26T02:10:45;3.40;99.90
5286;DHT22;2665;53.112;7.358;2024-02-26T02:13:13;3.40;99.90
5286;DHT22;2665;53.112;7.358;2024-02-26T02:15:39;3.40;99.90
5286;DHT22;2665;53.112;7.358;2024-02-26T02:18:06;3.30;99.90
5286;DHT22;2665;53.112;7.358;2024-02-26T02:20:32;3.20;99.90
5286;DHT22;2665;53.112;7.358;2024-02-26T02:22:59;3.20;99.90
5286;DHT22;2665;53.112;7.358;2024-02-26T02:25:25;3.20;99.90
5286;DHT22;2665;53.112;7.358;2024-02-26T02:27:50;3.20;99.90
5286;DHT22;2665;53.112;7.358;2024-02-26T02:30:17;3.20;99.90
5286;DHT22;2665;53.112;7.358;2024-02-26T02:32:43;3.30;99.90
5286;DHT22;2665;53.112;7.358;2024-02-26T02:35:09;3.40;99.90
5286;DHT22;2665;53.112;7.358;2024-02-26T02:37:35;3.50;99.90
5286;DHT22;2665;53.112;7.358;2024-02-26T02:40:00;3.60;99.90
5286;DHT22;2665;53.112;7.358;2024-02-26T02:42:26;3.70;99.90
5286;DHT22;2665;53.112;7.358;2024-02-26T02:44:52;3.80;99.90
5286;DHT22;2665;53.112;7.358;2024-02-26T02:47:17;3.90;99.90
5286;DHT22;2665;53.112;7.358;2024-02-26T02:49:43;3.90;99.90
5286;DHT22;2665;53.112;7.358;2024-02-26T02:52:09;3.90;99.90
5286;DHT22;2665;53.112;7.358;2024-02-26T02:54:34;3.90;99.90
5286;DHT22;2665;53.112;7.358;2024-02-26T02:57:02;3.80;99.90
5286;DHT22;2665;53.112;7.358;2024-02-26T02:59:28;3.80;99.90
5286;DHT22;2665;53.112;7.358;2024-02-26T03:01:54;3.80;99.90
5286;DHT22;2665;53.112;7.358;2024-02-26T03:04:19;3.70;99.90
5286;DHT22;2665;53.112;7.358;2024-02-26T03:06:45;3.70;99.90
5286;DHT22;2665;53.112;7.358;2024-02-26T03:09:11;3.60;99.90
5286;DHT22;2665;53.112;7.358;2024-02-26T03:11:36;3.60;99.90
5286;DHT22;2665;53.112;7.358;2024-02-26T03:14:02;3.60;99.90
5286;DHT22;2665;53.112;7.358;2024-02-26T03:16:28;3.60;99.90
5286;DHT22;2665;53.112;7.358;2024-02-26T03:18:53;3.60;99.90
5286;DHT22;2665;53.112;7.358;2024-02-26T03:21:19;3.50;99.90
5286;DHT22;2665;53.112;7.358;2024-02-26T03:23:45;3.50;99.90
5286;DHT22;2665;53.112;7.358;2024-02-26T03:26:11;3.50;99.90
5286;DHT22;2665;53.112;7.358;2024-02-26T03:28:39;3.50;99.90
5286;DHT22;2665;53.112;7.358;2024-02-26T03:31:04;3.50;99.90
5286;DHT22;2665;53.112;7.358;2024-02-26T03:33:30;3.40;99.90
5286;DHT22;2665;53.112;7.358;2024-02-26T03:35:55;3.40;99.90
5286;DHT22;2665;53.112;7.358;2024-02-26T03:38:21;3.40;99.90
5286;DHT22;2665;53.112;7.358;2024-02-26T03:40:47;3.30;99.90
5286;DHT22;2665;53.112;7.358;2024-02-26T03:43:13;3.30;99.90
5286;DHT22;2665;53.112;7.358;2024-02-26T03:45:39;3.30;99.90
5286;DHT22;2665;53.112;7.358;2024-02-26T03:48:05;3.20;99.90
5286;DHT22;2665;53.112;7.358;2024-02-26T03:50:31;3.30;99.90
5286;DHT22;2665;53.112;7.358;2024-02-26T03:52:57;3.20;99.90
5286;DHT22;2665;53.112;7.358;2024-02-26T03:55:23;3.30;99.90
5286;DHT22;2665;53.112;7.358;2024-02-26T03:57:51;3.20;99.90
5286;DHT22;2665;53.112;7.358;2024-02-26T04:00:17;3.20;99.90
5286;DHT22;2665;53.112;7.358;2024-02-26T04:02:43;3.20;99.90
5286;DHT22;2665;53.112;7.358;2024-02-26T04:05:11;3.20;99.90
5286;DHT22;2665;53.112;7.358;2024-02-26T04:07:37;3.10;99.90
5286;DHT22;2665;53.112;7.358;2024-02-26T04:10:03;3.10;99.90
5286;DHT22;2665;53.112;7.358;2024-02-26T04:12:33;3.10;99.90
5286;DHT22;2665;53.112;7.358;2024-02-26T04:14:59;3.00;99.90
5286;DHT22;2665;53.112;7.358;2024-02-26T04:17:25;3.00;99.90
5286;DHT22;2665;53.112;7.358;2024-02-26T04:19:50;3.00;99.90
5286;DHT22;2665;53.112;7.358;2024-02-26T04:22:16;3.00;99.90
5286;DHT22;2665;53.112;7.358;2024-02-26T04:24:42;3.00;99.90
5286;DHT22;2665;53.112;7.358;2024-02-26T04:27:08;3.00;99.90
5286;DHT22;2665;53.112;7.358;2024-02-26T04:29:34;3.00;99.90
5286;DHT22;2665;53.112;7.358;2024-02-26T04:31:59;3.00;99.90
5286;DHT22;2665;53.112;7.358;2024-02-26T04:34:25;3.00;99.90
5286;DHT22;2665;53.112;7.358;2024-02-26T04:36:51;2.90;99.90
5286;DHT22;2665;53.112;7.358;2024-02-26T04:39:16;2.90;99.90
5286;DHT22;2665;53.112;7.358;2024-02-26T04:41:42;2.90;99.90
5286;DHT22;2665;53.112;7.358;2024-02-26T04:44:07;2.80;99.90
5286;DHT22;2665;53.112;7.358;2024-02-26T04:46:33;2.80;99.90
5286;DHT22;2665;53.112;7.358;2024-02-26T04:48:59;2.80;99.90
5286;DHT22;2665;53.112;7.358;2024-02-26T04:51:24;2.80;99.90
5286;DHT22;2665;53.112;7.358;2024-02-26T04:53:50;2.80;99.90
5286;DHT22;2665;53.112;7.358;2024-02-26T04:56:16;2.80;99.90
5286;DHT22;2665;53.112;7.358;2024-02-26T04:58:41;2.80;99.90
5286;DHT22;2665;53.112;7.358;2024-02-26T05:01:07;2.70;99.90
5286;DHT22;2665;53.112;7.358;2024-02-26T05:03:35;2.70;99.90
5286;DHT22;2665;53.112;7.358;2024-02-26T05:06:01;2.80;99.90
5286;DHT22;2665;53.112;7.358;2024-02-26T05:08:26;2.70;99.90
5286;DHT22;2665;53.112;7.358;2024-02-26T05:10:52;2.70;99.90
5286;DHT22;2665;53.112;7.358;2024-02-26T05:13:18;2.70;99.90
5286;DHT22;2665;53.112;7.358;2024-02-26T05:15:44;2.70;99.90
5286;DHT22;2665;53.112;7.358;2024-02-26T05:18:12;2.70;99.90
5286;DHT22;2665;53.112;7.358;2024-02-26T05:20:37;2.70;99.90
5286;DHT22;2665;53.112;7.358;2024-02-26T05:23:03;2.70;99.90
5286;DHT22;2665;53.112;7.358;2024-02-26T05:25:29;2.80;99.90
5286;DHT22;2665;53.112;7.358;2024-02-26T05:27:55;2.80;99.90
5286;DHT22;2665;53.112;7.358;2024-02-26T05:30:21;2.80;99.90
5286;DHT22;2665;53.112;7.358;2024-02-26T05:32:47;2.70;99.90
5286;DHT22;2665;53.112;7.358;2024-02-26T05:35:12;2.80;99.90
5286;DHT22;2665;53.112;7.358;2024-02-26T05:37:38;2.80;99.90
5286;DHT22;2665;53.112;7.358;2024-02-26T05:40:05;2.70;99.90
5286;DHT22;2665;53.112;7.358;2024-02-26T05:42:31;2.80;99.90
5286;DHT22;2665;53.112;7.358;2024-02-26T05:44:57;2.80;99.90
5286;DHT22;2665;53.112;7.358;2024-02-26T05:47:23;2.80;99.90
5286;DHT22;2665;53.112;7.358;2024-02-26T05:49:48;2.80;99.90
5286;DHT22;2665;53.112;7.358;2024-02-26T05:52:14;2.80;99.90
5286;DHT22;2665;53.112;7.358;2024-02-26T05:54:40;2.90;99.90
5286;DHT22;2665;53.112;7.358;2024-02-26T05:57:05;2.90;99.90
5286;DHT22;2665;53.112;7.358;2024-02-26T05:59:31;2.90;99.90
5286;DHT22;2665;53.112;7.358;2024-02-26T06:01:56;2.90;99.90
5286;DHT22;2665;53.112;7.358;2024-02-26T06:04:22;2.90;99.90
5286;DHT22;2665;53.112;7.358;2024-02-26T06:06:48;2.90;99.90
5286;DHT22;2665;53.112;7.358;2024-02-26T06:09:13;3.00;99.90
5286;DHT22;2665;53.112;7.358;2024-02-26T06:11:39;3.00;99.90
5286;DHT22;2665;53.112;7.358;2024-02-26T06:14:05;3.00;99.90
5286;DHT22;2665;53.112;7.358;2024-02-26T06:16:31;3.00;99.90
5286;DHT22;2665;53.112;7.358;2024-02-26T06:18:56;3.00;99.90
5286;DHT22;2665;53.112;7.358;2024-02-26T06:21:22;3.10;99.90
5286;DHT22;2665;53.112;7.358;2024-02-26T06:23:48;3.10;99.90
5286;DHT22;2665;53.112;7.358;2024-02-26T06:26:14;3.10;99.90
5286;DHT22;2665;53.112;7.358;2024-02-26T06:28:40;3.10;99.90
5286;DHT22;2665;53.112;7.358;2024-02-26T06:31:06;3.10;99.90
5286;DHT22;2665;53.112;7.358;2024-02-26T06:33:32;3.20;99.90
5286;DHT22;2665;53.112;7.358;2024-02-26T06:35:57;3.20;99.90
5286;DHT22;2665;53.112;7.358;2024-02-26T06:38:23;3.20;99.90
5286;DHT22;2665;53.112;7.358;2024-02-26T06:40:49;3.20;99.90
5286;DHT22;2665;53.112;7.358;2024-02-26T06:43:14;3.20;99.90
5286;DHT22;2665;53.112;7.358;2024-02-26T06:45:40;3.30;99.90
5286;DHT22;2665;53.112;7.358;2024-02-26T06:48:06;3.30;99.90
5286;DHT22;2665;53.112;7.358;2024-02-26T06:50:32;3.30;99.90
5286;DHT22;2665;53.112;7.358;2024-02-26T06:52:58;3.30;99.90
5286;DHT22;2665;53.112;7.358;2024-02-26T06:55:23;3.40;99.90
5286;DHT22;2665;53.112;7.358;2024-02-26T06:57:49;3.40;99.90
5286;DHT22;2665;53.112;7.358;2024-02-26T07:00:15;3.50;99.90
5286;DHT22;2665;53.112;7.358;2024-02-26T07:02:42;3.50;99.90
5286;DHT22;2665;53.112;7.358;2024-02-26T07:05:08;3.50;99.90
5286;DHT22;2665;53.112;7.358;2024-02-26T07:07:34;3.50;99.90
5286;DHT22;2665;53.112;7.358;2024-02-26T07:10:00;3.50;99.90
5286;DHT22;2665;53.112;7.358;2024-02-26T07:12:32;3.50;99.90
5286;DHT22;2665;53.112;7.358;2024-02-26T07:14:58;3.50;99.90
5286;DHT22;2665;53.112;7.358;2024-02-26T07:17:23;3.60;99.90
5286;DHT22;2665;53.112;7.358;2024-02-26T07:19:49;3.50;99.90
5286;DHT22;2665;53.112;7.358;2024-02-26T07:22:15;3.60;99.90
5286;DHT22;2665;53.112;7.358;2024-02-26T07:24:41;3.60;99.90
5286;DHT22;2665;53.112;7.358;2024-02-26T07:27:06;3.60;99.90
5286;DHT22;2665;53.112;7.358;2024-02-26T07:29:32;3.60;99.90
5286;DHT22;2665;53.112;7.358;2024-02-26T07:31:58;3.60;99.90
5286;DHT22;2665;53.112;7.358;2024-02-26T07:34:24;3.60;99.90
5286;DHT22;2665;53.112;7.358;2024-02-26T07:36:57;3.70;99.90
5286;DHT22;2665;53.112;7.358;2024-02-26T07:39:22;3.60;99.90
5286;DHT22;2665;53.112;7.358;2024-02-26T07:41:48;3.70;99.90
5286;DHT22;2665;53.112;7.358;2024-02-26T07:44:17;3.70;99.90
5286;DHT22;2665;53.112;7.358;2024-02-26T07:46:42;3.80;99.90
5286;DHT22;2665;53.112;7.358;2024-02-26T07:49:08;3.70;99.90
5286;DHT22;2665;53.112;7.358;2024-02-26T07:51:34;3.70;99.90
5286;DHT22;2665;53.112;7.358;2024-02-26T07:54:00;3.70;99.90
5286;DHT22;2665;53.112;7.358;2024-02-26T07:56:26;3.80;99.90
5286;DHT22;2665;53.112;7.358;2024-02-26T07:58:52;3.70;99.90
5286;DHT22;2665;53.112;7.358;2024-02-26T08:01:17;3.80;99.90
5286;DHT22;2665;53.112;7.358;2024-02-26T08:03:43;3.80;99.90
5286;DHT22;2665;53.112;7.358;2024-02-26T08:06:09;3.90;99.90
5286;DHT22;2665;53.112;7.358;2024-02-26T08:08:34;3.90;99.90
5286;DHT22;2665;53.112;7.358;2024-02-26T08:11:00;3.90;99.90
5286;DHT22;2665;53.112;7.358;2024-02-26T08:13:26;3.90;99.90
5286;DHT22;2665;53.112;7.358;2024-02-26T08:15:52;3.90;99.90
5286;DHT22;2665;53.112;7.358;2024-02-26T08:18:18;4.00;99.90
5286;DHT22;2665;53.112;7.358;2024-02-26T08:20:44;4.00;99.90
5286;DHT22;2665;53.112;7.358;2024-02-26T08:23:10;4.00;99.90
5286;DHT22;2665;53.112;7.358;2024-02-26T08:25:36;4.10;99.90
5286;DHT22;2665;53.112;7.358;2024-02-26T08:28:02;4.10;99.90
5286;DHT22;2665;53.112;7.358;2024-02-26T08:30:28;4.10;99.90
5286;DHT22;2665;53.112;7.358;2024-02-26T08:32:53;4.10;99.90
5286;DHT22;2665;53.112;7.358;2024-02-26T08:35:19;4.10;99.90
5286;DHT22;2665;53.112;7.358;2024-02-26T08:37:45;4.20;99.90
5286;DHT22;2665;53.112;7.358;2024-02-26T08:40:12;4.20;99.90
5286;DHT22;2665;53.112;7.358;2024-02-26T08:42:37;4.20;99.90
5286;DHT22;2665;53.112;7.358;2024-02-26T08:45:03;4.20;99.90
5286;DHT22;2665;53.112;7.358;2024-02-26T08:47:29;4.20;99.90
5286;DHT22;2665;53.112;7.358;2024-02-26T08:49:54;4.30;99.90
5286;DHT22;2665;53.112;7.358;2024-02-26T08:52:20;4.30;99.90
5286;DHT22;2665;53.112;7.358;2024-02-26T08:54:47;4.30;99.90
5286;DHT22;2665;53.112;7.358;2024-02-26T08:57:12;4.30;99.90
5286;DHT22;2665;53.112;7.358;2024-02-26T08:59:38;4.40;99.90
5286;DHT22;2665;53.112;7.358;2024-02-26T09:02:04;4.40;99.90
5286;DHT22;2665;53.112;7.358;2024-02-26T09:04:29;4.50;99.90
5286;DHT22;2665;53.112;7.358;2024-02-26T09:06:55;4.50;99.90
5286;DHT22;2665;53.112;7.358;2024-02-26T09:09:20;4.50;99.90
5286;DHT22;2665;53.112;7.358;2024-02-26T09:11:48;4.60;99.90
5286;DHT22;2665;53.112;7.358;2024-02-26T09:14:14;4.60;99.90
5286;DHT22;2665;53.112;7.358;2024-02-26T09:16:39;4.60;99.90
5286;DHT22;2665;53.112;7.358;2024-02-26T09:19:05;4.60;99.90
5286;DHT22;2665;53.112;7.358;2024-02-26T09:21:31;4.70;99.90
5286;DHT22;2665;53.112;7.358;2024-02-26T09:23:56;4.70;99.90
5286;DHT22;2665;53.112;7.358;2024-02-26T09:26:22;4.70;99.90
5286;DHT22;2665;53.112;7.358;2024-02-26T09:28:47;4.70;99.90
5286;DHT22;2665;53.112;7.358;2024-02-26T09:31:15;4.80;98.80
5286;DHT22;2665;53.112;7.358;2024-02-26T09:33:42;4.80;94.40
5286;DHT22;2665;53.112;7.358;2024-02-26T09:36:08;4.80;92.70
5286;DHT22;2665;53.112;7.358;2024-02-26T09:38:35;4.80;92.90
5286;DHT22;2665;53.112;7.358;2024-02-26T09:41:06;4.90;90.50
5286;DHT22;2665;53.112;7.358;2024-02-26T09:43:36;4.90;90.80
5286;DHT22;2665;53.112;7.358;2024-02-26T09:46:03;4.90;90.30
5286;DHT22;2665;53.112;7.358;2024-02-26T09:48:30;5.00;89.50
5286;DHT22;2665;53.112;7.358;2024-02-26T09:50:56;5.10;86.60
5286;DHT22;2665;53.112;7.358;2024-02-26T09:53:22;5.10;81.80
5286;DHT22;2665;53.112;7.358;2024-02-26T09:55:48;5.10;76.00
5286;DHT22;2665;53.112;7.358;2024-02-26T09:58:14;5.20;67.90
5286;DHT22;2665;53.112;7.358;2024-02-26T10:00:47;5.20;63.40
5286;DHT22;2665;53.112;7.358;2024-02-26T10:03:16;5.30;61.10
5286;DHT22;2665;53.112;7.358;2024-02-26T10:05:43;5.30;47.80
5286;DHT22;2665;53.112;7.358;2024-02-26T10:08:11;5.30;38.00
5286;DHT22;2665;53.112;7.358;2024-02-26T10:10:38;5.30;27.60
5286;DHT22;2665;53.112;7.358;2024-02-26T10:13:04;5.40;19.90
5286;DHT22;2665;53.112;7.358;2024-02-26T10:15:36;5.40;4.80
5286;DHT22;2665;53.112;7.358;2024-02-26T10:18:05;5.40;1.00
5286;DHT22;2665;53.112;7.358;2024-02-26T10:20:31;5.50;1.00
5286;DHT22;2665;53.112;7.358;2024-02-26T10:22:57;5.60;1.00
5286;DHT22;2665;53.112;7.358;2024-02-26T10:25:23;5.70;1.00
5286;DHT22;2665;53.112;7.358;2024-02-26T10:27:49;5.70;1.00
5286;DHT22;2665;53.112;7.358;2024-02-26T10:30:21;5.70;1.00
5286;DHT22;2665;53.112;7.358;2024-02-26T10:32:51;5.70;1.00
5286;DHT22;2665;53.112;7.358;2024-02-26T10:35:17;5.70;1.00
5286;DHT22;2665;53.112;7.358;2024-02-26T10:37:43;5.80;1.00
5286;DHT22;2665;53.112;7.358;2024-02-26T10:40:13;5.80;1.00
5286;DHT22;2665;53.112;7.358;2024-02-26T10:42:40;5.80;1.00
5286;DHT22;2665;53.112;7.358;2024-02-26T10:45:06;5.90;1.00
5286;DHT22;2665;53.112;7.358;2024-02-26T10:47:33;5.90;1.00
5286;DHT22;2665;53.112;7.358;2024-02-26T10:50:02;6.00;1.00
5286;DHT22;2665;53.112;7.358;2024-02-26T10:52:30;6.00;1.00
5286;DHT22;2665;53.112;7.358;2024-02-26T10:54:56;6.10;1.00
5286;DHT22;2665;53.112;7.358;2024-02-26T10:57:27;6.10;1.00
5286;DHT22;2665;53.112;7.358;2024-02-26T10:59:55;6.20;1.00
5286;DHT22;2665;53.112;7.358;2024-02-26T11:02:21;6.20;1.00
5286;DHT22;2665;53.112;7.358;2024-02-26T11:04:47;6.20;1.00
5286;DHT22;2665;53.112;7.358;2024-02-26T11:07:14;6.20;1.00
5286;DHT22;2665;53.112;7.358;2024-02-26T11:09:42;6.20;1.00
5286;DHT22;2665;53.112;7.358;2024-02-26T11:12:11;6.30;99.90
5286;DHT22;2665;53.112;7.358;2024-02-26T11:14:40;6.20;99.90
5286;DHT22;2665;53.112;7.358;2024-02-26T11:17:08;6.20;99.90
5286;DHT22;2665;53.112;7.358;2024-02-26T11:19:36;6.20;99.90
5286;DHT22;2665;53.112;7.358;2024-02-26T11:22:02;6.20;99.90
5286;DHT22;2665;53.112;7.358;2024-02-26T11:24:28;6.10;23.80
5286;DHT22;2665;53.112;7.358;2024-02-26T11:27:01;6.20;99.90
5286;DHT22;2665;53.112;7.358;2024-02-26T11:29:34;6.30;99.90
5286;DHT22;2665;53.112;7.358;2024-02-26T11:32:00;6.30;97.50
5286;DHT22;2665;53.112;7.358;2024-02-26T11:34:26;6.30;1.00
5286;DHT22;2665;53.112;7.358;2024-02-26T11:36:53;6.40;1.00
5286;DHT22;2665;53.112;7.358;2024-02-26T11:39:19;6.50;1.00
5286;DHT22;2665;53.112;7.358;2024-02-26T11:41:46;6.50;1.00
5286;DHT22;2665;53.112;7.358;2024-02-26T11:44:12;6.60;1.00
5286;DHT22;2665;53.112;7.358;2024-02-26T11:46:42;6.60;1.00
5286;DHT22;2665;53.112;7.358;2024-02-26T11:51:55;6.60;41.20
5286;DHT22;2665;53.112;7.358;2024-02-26T11:54:53;6.50;38.50
5286;DHT22;2665;53.112;7.358;2024-02-26T11:57:30;6.50;61.70
5286;DHT22;2665;53.112;7.358;2024-02-26T12:02:47;6.70;99.90
5286;DHT22;2665;53.112;7.358;2024-02-26T12:05:17;6.80;39.60
5286;DHT22;2665;53.112;7.358;2024-02-26T12:07:49;6.90;1.00
5286;DHT22;2665;53.112;7.358;2024-02-26T12:10:24;7.00;99.90
5286;DHT22;2665;53.112;7.358;2024-02-26T12:13:16;7.20;1.00
5286;DHT22;2665;53.112;7.358;2024-02-26T12:15:55;7.30;1.00
5286;DHT22;2665;53.112;7.358;2024-02-26T12:18:22;7.50;1.00
5286;DHT22;2665;53.112;7.358;2024-02-26T12:21:02;7.70;1.00
5286;DHT22;2665;53.112;7.358;2024-02-26T12:23:27;7.80;1.00
5286;DHT22;2665;53.112;7.358;2024-02-26T12:25:58;7.90;99.90
5286;DHT22;2665;53.112;7.358;2024-02-26T12:28:27;7.90;82.70
5286;DHT22;2665;53.112;7.358;2024-02-26T12:30:52;7.90;58.60
5286;DHT22;2665;53.112;7.358;2024-02-26T12:33:18;8.00;99.90
5286;DHT22;2665;53.112;7.358;2024-02-26T12:35:44;7.90;1.00
5286;DHT22;2665;53.112;7.358;2024-02-26T12:38:14;7.80;80.40
5286;DHT22;2665;53.112;7.358;2024-02-26T12:40:40;7.70;1.00
5286;DHT22;2665;53.112;7.358;2024-02-26T12:43:06;7.60;99.90
5286;DHT22;2665;53.112;7.358;2024-02-26T12:45:33;7.50;1.00
5286;DHT22;2665;53.112;7.358;2024-02-26T12:47:59;7.50;99.90
5286;DHT22;2665;53.112;7.358;2024-02-26T12:50:25;7.60;99.90
5286;DHT22;2665;53.112;7.358;2024-02-26T12:52:51;7.60;99.90
5286;DHT22;2665;53.112;7.358;2024-02-26T12:55:19;7.70;99.90
5286;DHT22;2665;53.112;7.358;2024-02-26T12:57:46;7.70;99.90
5286;DHT22;2665;53.112;7.358;2024-02-26T13:00:17;7.70;99.90
5286;DHT22;2665;53.112;7.358;2024-02-26T13:02:44;7.60;99.90
5286;DHT22;2665;53.112;7.358;2024-02-26T13:05:12;7.60;1.00
5286;DHT22;2665;53.112;7.358;2024-02-26T13:07:45;7.50;99.90
5286;DHT22;2665;53.112;7.358;2024-02-26T13:10:13;7.30;99.90
5286;DHT22;2665;53.112;7.358;2024-02-26T13:12:44;7.20;1.00
5286;DHT22;2665;53.112;7.358;2024-02-26T13:15:14;7.10;1.00
5286;DHT22;2665;53.112;7.358;2024-02-26T13:17:40;7.00;1.00
5286;DHT22;2665;53.112;7.358;2024-02-26T13:20:08;6.90;1.00
5286;DHT22;2665;53.112;7.358;2024-02-26T13:22:35;6.80;1.00
5286;DHT22;2665;53.112;7.358;2024-02-26T13:25:01;6.70;99.90
5286;DHT22;2665;53.112;7.358;2024-02-26T13:27:30;6.60;1.00
5286;DHT22;2665;53.112;7.358;2024-02-26T13:30:09;6.40;1.00
5286;DHT22;2665;53.112;7.358;2024-02-26T13:32:36;6.30;99.90
5286;DHT22;2665;53.112;7.358;2024-02-26T13:35:13;6.30;1.00
5286;DHT22;2665;53.112;7.358;2024-02-26T13:37:39;6.30;99.90
5286;DHT22;2665;53.112;7.358;2024-02-26T13:40:14;6.20;1.00
5286;DHT22;2665;53.112;7.358;2024-02-26T13:42:40;6.20;1.00
5286;DHT22;2665;53.112;7.358;2024-02-26T13:45:06;6.10;1.00
5286;DHT22;2665;53.112;7.358;2024-02-26T13:47:33;6.10;1.00
5286;DHT22;2665;53.112;7.358;2024-02-26T13:49:59;6.10;1.00
5286;DHT22;2665;53.112;7.358;2024-02-26T13:52:26;6.00;99.90
5286;DHT22;2665;53.112;7.358;2024-02-26T13:54:51;6.00;99.90
5286;DHT22;2665;53.112;7.358;2024-02-26T13:57:18;6.00;99.90
5286;DHT22;2665;53.112;7.358;2024-02-26T13:59:44;6.00;99.90
5286;DHT22;2665;53.112;7.358;2024-02-26T14:02:10;5.90;99.90
5286;DHT22;2665;53.112;7.358;2024-02-26T14:04:37;5.90;99.90
5286;DHT22;2665;53.112;7.358;2024-02-26T14:07:03;5.80;99.90
5286;DHT22;2665;53.112;7.358;2024-02-26T14:09:29;5.80;99.90
5286;DHT22;2665;53.112;7.358;2024-02-26T14:11:54;5.80;99.90
5286;DHT22;2665;53.112;7.358;2024-02-26T14:14:20;5.80;99.90
5286;DHT22;2665;53.112;7.358;2024-02-26T14:16:46;5.70;1.00
5286;DHT22;2665;53.112;7.358;2024-02-26T14:19:11;5.80;1.00
5286;DHT22;2665;53.112;7.358;2024-02-26T14:21:37;5.80;1.00
5286;DHT22;2665;53.112;7.358;2024-02-26T14:24:04;5.80;1.00
5286;DHT22;2665;53.112;7.358;2024-02-26T14:26:30;5.90;1.00
5286;DHT22;2665;53.112;7.358;2024-02-26T14:28:55;5.90;1.00
5286;DHT22;2665;53.112;7.358;2024-02-26T14:31:21;5.90;1.00
5286;DHT22;2665;53.112;7.358;2024-02-26T14:33:47;5.90;1.00
5286;DHT22;2665;53.112;7.358;2024-02-26T14:36:13;6.00;1.00
5286;DHT22;2665;53.112;7.358;2024-02-26T14:38:39;6.00;1.00
5286;DHT22;2665;53.112;7.358;2024-02-26T14:41:05;6.00;1.00
5286;DHT22;2665;53.112;7.358;2024-02-26T14:43:31;6.00;1.00
5286;DHT22;2665;53.112;7.358;2024-02-26T14:46:01;6.00;1.00
5286;DHT22;2665;53.112;7.358;2024-02-26T14:48:27;6.00;1.00
5286;DHT22;2665;53.112;7.358;2024-02-26T14:50:53;5.90;1.00
5286;DHT22;2665;53.112;7.358;2024-02-26T14:53:19;5.90;1.00
5286;DHT22;2665;53.112;7.358;2024-02-26T14:55:45;5.90;1.00
5286;DHT22;2665;53.112;7.358;2024-02-26T14:58:10;5.90;1.00
5286;DHT22;2665;53.112;7.358;2024-02-26T15:00:36;5.90;1.00
5286;DHT22;2665;53.112;7.358;2024-02-26T15:03:03;5.90;1.00
5286;DHT22;2665;53.112;7.358;2024-02-26T15:05:29;5.90;1.00
5286;DHT22;2665;53.112;7.358;2024-02-26T15:07:55;5.90;1.00
5286;DHT22;2665;53.112;7.358;2024-02-26T15:10:20;5.80;1.00
5286;DHT22;2665;53.112;7.358;2024-02-26T15:12:46;5.90;1.00
5286;DHT22;2665;53.112;7.358;2024-02-26T15:15:12;5.90;1.00
5286;DHT22;2665;53.112;7.358;2024-02-26T15:17:38;5.90;1.00
5286;DHT22;2665;53.112;7.358;2024-02-26T15:20:04;5.90;1.00
5286;DHT22;2665;53.112;7.358;2024-02-26T15:22:33;5.90;1.00
5286;DHT22;2665;53.112;7.358;2024-02-26T15:24:58;5.90;1.00
5286;DHT22;2665;53.112;7.358;2024-02-26T15:27:24;5.80;1.00
5286;DHT22;2665;53.112;7.358;2024-02-26T15:29:50;5.80;1.00
5286;DHT22;2665;53.112;7.358;2024-02-26T15:32:23;5.80;1.00
5286;DHT22;2665;53.112;7.358;2024-02-26T15:34:50;5.80;1.00
5286;DHT22;2665;53.112;7.358;2024-02-26T15:37:16;5.70;1.00
5286;DHT22;2665;53.112;7.358;2024-02-26T15:39:42;5.70;1.00
5286;DHT22;2665;53.112;7.358;2024-02-26T15:42:08;5.60;1.00
5286;DHT22;2665;53.112;7.358;2024-02-26T15:44:33;5.60;1.00
5286;DHT22;2665;53.112;7.358;2024-02-26T15:46:59;5.60;1.00
5286;DHT22;2665;53.112;7.358;2024-02-26T15:49:25;5.60;1.00
5286;DHT22;2665;53.112;7.358;2024-02-26T15:51:51;5.50;1.00
5286;DHT22;2665;53.112;7.358;2024-02-26T15:54:16;5.50;1.00
5286;DHT22;2665;53.112;7.358;2024-02-26T15:56:42;5.50;1.00
5286;DHT22;2665;53.112;7.358;2024-02-26T15:59:08;5.40;1.00
5286;DHT22;2665;53.112;7.358;2024-02-26T16:01:33;5.40;1.00
5286;DHT22;2665;53.112;7.358;2024-02-26T16:03:59;5.40;1.00
5286;DHT22;2665;53.112;7.358;2024-02-26T16:06:48;5.40;1.00
5286;DHT22;2665;53.112;7.358;2024-02-26T16:09:15;5.40;1.00
5286;DHT22;2665;53.112;7.358;2024-02-26T16:11:41;5.30;1.00
5286;DHT22;2665;53.112;7.358;2024-02-26T16:17:20;5.30;1.00
5286;DHT22;2665;53.112;7.358;2024-02-26T16:19:46;5.30;1.00
5286;DHT22;2665;53.112;7.358;2024-02-26T16:22:12;5.20;1.00
5286;DHT22;2665;53.112;7.358;2024-02-26T16:24:39;5.20;1.00
5286;DHT22;2665;53.112;7.358;2024-02-26T16:27:05;5.20;1.00